Airfield :
LOGIN :

Register | Disclaimer

   EN    FR    IT 

 










Legend :    VFR   Marginal VFR   IFR   Intensive IFR   Very Intensive IFR
Visi :
Ceiling :
>= 8 km
>= 3000ft
5 to 8 km
1000 to 3000 ft
1500m to 5 km
500 to 1000 ft
800 to 1500m
200 to 500 ft
< 800m
< 200 ft
Symbols :   Thunderstorms  Fog  Heavy snow  Heavy precipitations  Wind > 20 kt
SIGMETs :     Misc.  Thunderstorms  Icing  Turbulence  Mountain Waves  Volcanic Ashes






- Airport Elevation : 53 ft
- IATA code : HAM


EDDH - Hamburg

CURRENT METAR :
  • 242120Z 28008KT 240V310 CAVOK 11/09 Q1025 NOSIG

EXPIRED METARs :
  • 242050Z 27008KT 240V320 9999 FEW021 11/08 Q1025 NOSIG
  • 242020Z 28008KT 9999 FEW021 11/08 Q1025 NOSIG
  • 241950Z 27007KT 9999 FEW030 12/08 Q1025 NOSIG
  • 241920Z 28011KT 9999 FEW030 12/07 Q1024 NOSIG
  • 241850Z 28010KT 9999 FEW030 13/07 Q1024 NOSIG

TAF TAF EDDH
Valid from the 24 at 18:00 until the 26 at 00:00 UTC


241700Z 2418/2524 29015G25KT 9999 SCT030
BECMG 2418/2420 28010KT
TEMPO 2501/2506 BKN013
TEMPO 2506/2514 30015G25KT
BECMG 2520/2522 30004KT
TEMPO 2522/2524 4500 BCFG



MET'MAP, your aeronautical weather chart ! - Copyright ORBIFLY December 2007 - Disclaimer

ORBIFLY MET'MAP TEAM :

Programming & Development : Alexandra Zaïnal
Concept & original design : Baudouin d'Aumeries
Assistance for programming : Marc-Olivier Méhu
Technical & hardware support : Manuel Goepfert

Contact : metmap@orbifly.com




SOURCES & CREDITS :

   NOAA